Terminal Aerodrome Forecast
Issued by NWS Shreveport, LA

Home | Current Version | Previous Version | Text Only | Print | Product List | Glossary On
Versions: 1 2 3 4 5 6 7 8 9 10 11 12 13 14 15 16 17 18
000
FTUS44 KSHV 041751
TAFGGG
TAF
KGGG 041751Z 0418/0518 34006KT P6SM OVC006
     FM050000 03004KT P6SM OVC015
     FM050900 05009KT 5SM -RA BR OVC010
     FM051200 07009KT 3SM RA BR OVC008=

USA.gov is the U.S. government's official web portal to all federal, state and local government web resources and services.